sensor_id;sensor_type;location;lat;lon;timestamp;temperature;humidity
37646;DHT22;23489;49.600;6.138;2023-02-01T00:01:54;5.00;99.90
37646;DHT22;23489;49.600;6.138;2023-02-01T00:04:20;5.00;99.90
37646;DHT22;23489;49.600;6.138;2023-02-01T00:06:46;5.00;99.90
37646;DHT22;23489;49.600;6.138;2023-02-01T00:09:12;5.10;99.90
37646;DHT22;23489;49.600;6.138;2023-02-01T00:11:38;5.10;99.90
37646;DHT22;23489;49.600;6.138;2023-02-01T00:14:04;5.10;99.90
37646;DHT22;23489;49.600;6.138;2023-02-01T00:16:31;5.10;99.90
37646;DHT22;23489;49.600;6.138;2023-02-01T00:19:05;5.10;99.90
37646;DHT22;23489;49.600;6.138;2023-02-01T00:21:31;5.10;99.90
37646;DHT22;23489;49.600;6.138;2023-02-01T00:23:57;5.10;99.90
37646;DHT22;23489;49.600;6.138;2023-02-01T00:26:31;5.10;99.90
37646;DHT22;23489;49.600;6.138;2023-02-01T00:28:57;5.10;99.90
37646;DHT22;23489;49.600;6.138;2023-02-01T00:31:23;5.10;99.90
37646;DHT22;23489;49.600;6.138;2023-02-01T00:33:49;5.10;99.90
37646;DHT22;23489;49.600;6.138;2023-02-01T00:36:15;5.10;99.90
37646;DHT22;23489;49.600;6.138;2023-02-01T00:38:41;5.10;99.90
37646;DHT22;23489;49.600;6.138;2023-02-01T00:43:35;5.10;99.90
37646;DHT22;23489;49.600;6.138;2023-02-01T00:46:01;5.10;99.90
37646;DHT22;23489;49.600;6.138;2023-02-01T00:48:27;5.10;99.90
37646;DHT22;23489;49.600;6.138;2023-02-01T00:50:52;5.10;99.90
37646;DHT22;23489;49.600;6.138;2023-02-01T00:53:18;5.10;99.90
37646;DHT22;23489;49.600;6.138;2023-02-01T00:55:47;5.10;99.90
37646;DHT22;23489;49.600;6.138;2023-02-01T00:58:14;5.10;99.90
37646;DHT22;23489;49.600;6.138;2023-02-01T01:00:39;5.20;99.90
37646;DHT22;23489;49.600;6.138;2023-02-01T01:03:05;5.20;99.90
37646;DHT22;23489;49.600;6.138;2023-02-01T01:05:50;5.10;99.90
37646;DHT22;23489;49.600;6.138;2023-02-01T01:08:16;5.10;99.90
37646;DHT22;23489;49.600;6.138;2023-02-01T01:10:42;5.20;99.90
37646;DHT22;23489;49.600;6.138;2023-02-01T01:13:10;5.20;99.90
37646;DHT22;23489;49.600;6.138;2023-02-01T01:15:38;5.20;99.90
37646;DHT22;23489;49.600;6.138;2023-02-01T01:18:05;5.20;99.90
37646;DHT22;23489;49.600;6.138;2023-02-01T01:20:31;5.20;99.90
37646;DHT22;23489;49.600;6.138;2023-02-01T01:22:59;5.20;99.90
37646;DHT22;23489;49.600;6.138;2023-02-01T01:25:25;5.20;99.90
37646;DHT22;23489;49.600;6.138;2023-02-01T01:27:51;5.20;99.90
37646;DHT22;23489;49.600;6.138;2023-02-01T01:30:17;5.20;99.90
37646;DHT22;23489;49.600;6.138;2023-02-01T01:32:43;5.20;99.90
37646;DHT22;23489;49.600;6.138;2023-02-01T01:35:09;5.30;99.90
37646;DHT22;23489;49.600;6.138;2023-02-01T01:37:35;5.30;99.90
37646;DHT22;23489;49.600;6.138;2023-02-01T01:40:03;5.30;99.90
37646;DHT22;23489;49.600;6.138;2023-02-01T01:42:29;5.30;99.90
37646;DHT22;23489;49.600;6.138;2023-02-01T01:47:47;5.30;99.90
37646;DHT22;23489;49.600;6.138;2023-02-01T01:50:18;5.40;99.90
37646;DHT22;23489;49.600;6.138;2023-02-01T01:52:48;5.30;99.90
37646;DHT22;23489;49.600;6.138;2023-02-01T01:55:15;5.30;99.90
37646;DHT22;23489;49.600;6.138;2023-02-01T01:57:45;5.30;99.90
37646;DHT22;23489;49.600;6.138;2023-02-01T02:00:16;5.30;99.90
37646;DHT22;23489;49.600;6.138;2023-02-01T02:02:46;5.30;99.90
37646;DHT22;23489;49.600;6.138;2023-02-01T02:05:15;5.30;99.90
37646;DHT22;23489;49.600;6.138;2023-02-01T02:07:45;5.30;99.90
37646;DHT22;23489;49.600;6.138;2023-02-01T02:10:13;5.30;99.90
37646;DHT22;23489;49.600;6.138;2023-02-01T02:12:41;5.30;99.90
37646;DHT22;23489;49.600;6.138;2023-02-01T02:15:08;5.40;99.90
37646;DHT22;23489;49.600;6.138;2023-02-01T02:31:46;5.30;99.90
37646;DHT22;23489;49.600;6.138;2023-02-01T02:34:38;5.30;99.90
37646;DHT22;23489;49.600;6.138;2023-02-01T02:40:37;5.30;99.90
37646;DHT22;23489;49.600;6.138;2023-02-01T02:46:15;5.30;99.90
37646;DHT22;23489;49.600;6.138;2023-02-01T02:51:56;5.30;99.90
37646;DHT22;23489;49.600;6.138;2023-02-01T02:54:47;5.30;99.90
37646;DHT22;23489;49.600;6.138;2023-02-01T02:57:51;5.30;99.90
37646;DHT22;23489;49.600;6.138;2023-02-01T03:00:35;5.30;99.90
37646;DHT22;23489;49.600;6.138;2023-02-01T03:03:20;5.30;99.90
37646;DHT22;23489;49.600;6.138;2023-02-01T03:06:12;5.40;99.90
37646;DHT22;23489;49.600;6.138;2023-02-01T03:08:40;5.40;99.90
37646;DHT22;23489;49.600;6.138;2023-02-01T03:11:13;5.40;99.90
37646;DHT22;23489;49.600;6.138;2023-02-01T03:13:54;5.30;99.90
37646;DHT22;23489;49.600;6.138;2023-02-01T03:19:02;5.40;99.90
37646;DHT22;23489;49.600;6.138;2023-02-01T03:26:48;5.30;99.90
37646;DHT22;23489;49.600;6.138;2023-02-01T03:29:18;5.40;99.90
37646;DHT22;23489;49.600;6.138;2023-02-01T03:31:46;5.40;99.90
37646;DHT22;23489;49.600;6.138;2023-02-01T03:34:12;5.40;99.90
37646;DHT22;23489;49.600;6.138;2023-02-01T03:36:50;5.40;99.90
37646;DHT22;23489;49.600;6.138;2023-02-01T03:42:11;5.40;99.90
37646;DHT22;23489;49.600;6.138;2023-02-01T03:45:10;5.40;99.90
37646;DHT22;23489;49.600;6.138;2023-02-01T03:47:43;5.40;99.90
37646;DHT22;23489;49.600;6.138;2023-02-01T03:50:14;5.40;99.90
37646;DHT22;23489;49.600;6.138;2023-02-01T03:52:48;5.40;99.90
37646;DHT22;23489;49.600;6.138;2023-02-01T03:55:18;5.40;99.90
37646;DHT22;23489;49.600;6.138;2023-02-01T03:57:55;5.40;99.90
37646;DHT22;23489;49.600;6.138;2023-02-01T04:00:25;5.40;99.90
37646;DHT22;23489;49.600;6.138;2023-02-01T04:02:53;5.40;99.90
37646;DHT22;23489;49.600;6.138;2023-02-01T04:05:19;5.40;99.90
37646;DHT22;23489;49.600;6.138;2023-02-01T04:07:53;5.40;99.90
37646;DHT22;23489;49.600;6.138;2023-02-01T04:10:19;5.40;99.90
37646;DHT22;23489;49.600;6.138;2023-02-01T04:12:45;5.40;99.90
37646;DHT22;23489;49.600;6.138;2023-02-01T04:15:11;5.40;99.90
37646;DHT22;23489;49.600;6.138;2023-02-01T04:17:36;5.40;99.90
37646;DHT22;23489;49.600;6.138;2023-02-01T04:20:02;5.40;99.90
37646;DHT22;23489;49.600;6.138;2023-02-01T04:22:30;5.40;99.90
37646;DHT22;23489;49.600;6.138;2023-02-01T04:24:56;5.40;99.90
37646;DHT22;23489;49.600;6.138;2023-02-01T04:27:21;5.40;99.90
37646;DHT22;23489;49.600;6.138;2023-02-01T04:29:47;5.40;99.90
37646;DHT22;23489;49.600;6.138;2023-02-01T04:32:15;5.40;99.90
37646;DHT22;23489;49.600;6.138;2023-02-01T04:34:41;5.40;99.90
37646;DHT22;23489;49.600;6.138;2023-02-01T04:37:07;5.40;99.90
37646;DHT22;23489;49.600;6.138;2023-02-01T04:39:33;5.40;99.90
37646;DHT22;23489;49.600;6.138;2023-02-01T04:41:59;5.40;99.90
37646;DHT22;23489;49.600;6.138;2023-02-01T04:44:24;5.50;99.90
37646;DHT22;23489;49.600;6.138;2023-02-01T04:46:50;5.50;99.90
37646;DHT22;23489;49.600;6.138;2023-02-01T04:49:16;5.50;99.90
37646;DHT22;23489;49.600;6.138;2023-02-01T04:51:42;5.50;99.90
37646;DHT22;23489;49.600;6.138;2023-02-01T04:54:09;5.40;99.90
37646;DHT22;23489;49.600;6.138;2023-02-01T04:56:37;5.40;99.90
37646;DHT22;23489;49.600;6.138;2023-02-01T04:59:03;5.50;99.90
37646;DHT22;23489;49.600;6.138;2023-02-01T05:01:29;5.50;99.90
37646;DHT22;23489;49.600;6.138;2023-02-01T05:03:54;5.40;99.90
37646;DHT22;23489;49.600;6.138;2023-02-01T05:06:21;5.50;99.90
37646;DHT22;23489;49.600;6.138;2023-02-01T05:08:46;5.40;99.90
37646;DHT22;23489;49.600;6.138;2023-02-01T05:11:12;5.40;99.90
37646;DHT22;23489;49.600;6.138;2023-02-01T05:13:58;5.40;99.90
37646;DHT22;23489;49.600;6.138;2023-02-01T05:16:24;5.40;99.90
37646;DHT22;23489;49.600;6.138;2023-02-01T05:18:50;5.40;99.90
37646;DHT22;23489;49.600;6.138;2023-02-01T05:21:16;5.40;99.90
37646;DHT22;23489;49.600;6.138;2023-02-01T05:23:42;5.40;99.90
37646;DHT22;23489;49.600;6.138;2023-02-01T05:26:26;5.40;99.90
37646;DHT22;23489;49.600;6.138;2023-02-01T05:28:52;5.40;99.90
37646;DHT22;23489;49.600;6.138;2023-02-01T05:31:17;5.40;99.90
37646;DHT22;23489;49.600;6.138;2023-02-01T05:33:43;5.40;99.90
37646;DHT22;23489;49.600;6.138;2023-02-01T05:36:09;5.40;99.90
37646;DHT22;23489;49.600;6.138;2023-02-01T05:38:34;5.40;99.90
37646;DHT22;23489;49.600;6.138;2023-02-01T05:41:00;5.40;99.90
37646;DHT22;23489;49.600;6.138;2023-02-01T05:43:25;5.40;99.90
37646;DHT22;23489;49.600;6.138;2023-02-01T05:45:52;5.30;99.90
37646;DHT22;23489;49.600;6.138;2023-02-01T05:48:18;5.40;99.90
37646;DHT22;23489;49.600;6.138;2023-02-01T05:50:44;5.30;99.90
37646;DHT22;23489;49.600;6.138;2023-02-01T05:53:10;5.30;99.90
37646;DHT22;23489;49.600;6.138;2023-02-01T05:55:36;5.30;99.90
37646;DHT22;23489;49.600;6.138;2023-02-01T05:58:02;5.20;99.90
37646;DHT22;23489;49.600;6.138;2023-02-01T06:00:28;5.20;99.90
37646;DHT22;23489;49.600;6.138;2023-02-01T06:02:54;5.20;99.90
37646;DHT22;23489;49.600;6.138;2023-02-01T06:05:20;5.20;99.90
37646;DHT22;23489;49.600;6.138;2023-02-01T06:07:45;5.20;99.90
37646;DHT22;23489;49.600;6.138;2023-02-01T06:10:12;5.20;99.90
37646;DHT22;23489;49.600;6.138;2023-02-01T06:12:37;5.20;99.90
37646;DHT22;23489;49.600;6.138;2023-02-01T06:15:03;5.20;99.90
37646;DHT22;23489;49.600;6.138;2023-02-01T06:17:29;5.20;99.90
37646;DHT22;23489;49.600;6.138;2023-02-01T06:19:55;5.10;99.90
37646;DHT22;23489;49.600;6.138;2023-02-01T06:22:20;5.10;99.90
37646;DHT22;23489;49.600;6.138;2023-02-01T06:24:48;5.10;99.90
37646;DHT22;23489;49.600;6.138;2023-02-01T06:27:14;5.00;99.90
37646;DHT22;23489;49.600;6.138;2023-02-01T06:29:40;4.90;99.90
37646;DHT22;23489;49.600;6.138;2023-02-01T06:32:06;4.90;99.90
37646;DHT22;23489;49.600;6.138;2023-02-01T06:34:31;4.80;99.90
37646;DHT22;23489;49.600;6.138;2023-02-01T06:36:57;4.80;99.90
37646;DHT22;23489;49.600;6.138;2023-02-01T06:39:23;4.80;99.90
37646;DHT22;23489;49.600;6.138;2023-02-01T06:41:48;4.70;99.90
37646;DHT22;23489;49.600;6.138;2023-02-01T06:44:15;4.60;99.90
37646;DHT22;23489;49.600;6.138;2023-02-01T06:46:41;4.60;99.90
37646;DHT22;23489;49.600;6.138;2023-02-01T06:49:06;4.50;99.90
37646;DHT22;23489;49.600;6.138;2023-02-01T06:51:33;4.40;99.90
37646;DHT22;23489;49.600;6.138;2023-02-01T06:54:00;4.40;99.90
37646;DHT22;23489;49.600;6.138;2023-02-01T06:56:26;4.40;99.90
37646;DHT22;23489;49.600;6.138;2023-02-01T06:58:52;4.30;99.90
37646;DHT22;23489;49.600;6.138;2023-02-01T07:01:18;4.30;99.90
37646;DHT22;23489;49.600;6.138;2023-02-01T07:03:48;4.20;99.90
37646;DHT22;23489;49.600;6.138;2023-02-01T07:06:14;4.20;99.90
37646;DHT22;23489;49.600;6.138;2023-02-01T07:08:39;4.20;99.90
37646;DHT22;23489;49.600;6.138;2023-02-01T07:11:07;4.20;99.90
37646;DHT22;23489;49.600;6.138;2023-02-01T07:13:34;4.10;99.90
37646;DHT22;23489;49.600;6.138;2023-02-01T07:16:01;4.10;99.90
37646;DHT22;23489;49.600;6.138;2023-02-01T07:18:29;4.20;99.90
37646;DHT22;23489;49.600;6.138;2023-02-01T07:20:55;4.20;99.90
37646;DHT22;23489;49.600;6.138;2023-02-01T07:23:21;4.20;99.90
37646;DHT22;23489;49.600;6.138;2023-02-01T07:25:47;4.20;99.90
37646;DHT22;23489;49.600;6.138;2023-02-01T07:28:13;4.20;99.90
37646;DHT22;23489;49.600;6.138;2023-02-01T07:30:39;4.30;99.90
37646;DHT22;23489;49.600;6.138;2023-02-01T07:33:06;4.30;99.90
37646;DHT22;23489;49.600;6.138;2023-02-01T07:35:31;4.40;99.90
37646;DHT22;23489;49.600;6.138;2023-02-01T07:37:57;4.40;99.90
37646;DHT22;23489;49.600;6.138;2023-02-01T07:40:23;4.40;99.90
37646;DHT22;23489;49.600;6.138;2023-02-01T07:42:56;4.30;99.90
37646;DHT22;23489;49.600;6.138;2023-02-01T07:45:23;4.40;99.90
37646;DHT22;23489;49.600;6.138;2023-02-01T07:47:51;4.40;99.90
37646;DHT22;23489;49.600;6.138;2023-02-01T07:50:17;4.40;99.90
37646;DHT22;23489;49.600;6.138;2023-02-01T07:52:42;4.40;99.90
37646;DHT22;23489;49.600;6.138;2023-02-01T07:55:08;4.50;99.90
37646;DHT22;23489;49.600;6.138;2023-02-01T07:57:34;4.50;99.90
37646;DHT22;23489;49.600;6.138;2023-02-01T08:00:00;4.50;99.90
37646;DHT22;23489;49.600;6.138;2023-02-01T08:02:44;4.50;99.90
37646;DHT22;23489;49.600;6.138;2023-02-01T08:05:09;4.50;99.90
37646;DHT22;23489;49.600;6.138;2023-02-01T08:07:35;4.60;99.90
37646;DHT22;23489;49.600;6.138;2023-02-01T08:10:01;4.80;99.90
37646;DHT22;23489;49.600;6.138;2023-02-01T08:12:26;4.90;99.90
37646;DHT22;23489;49.600;6.138;2023-02-01T08:14:53;5.00;99.90
37646;DHT22;23489;49.600;6.138;2023-02-01T08:17:19;5.10;99.90
37646;DHT22;23489;49.600;6.138;2023-02-01T08:19:45;5.10;99.90
37646;DHT22;23489;49.600;6.138;2023-02-01T08:22:11;5.10;99.90
37646;DHT22;23489;49.600;6.138;2023-02-01T08:24:37;5.20;99.90
37646;DHT22;23489;49.600;6.138;2023-02-01T08:27:05;5.40;99.90
37646;DHT22;23489;49.600;6.138;2023-02-01T08:29:31;5.40;99.90
37646;DHT22;23489;49.600;6.138;2023-02-01T08:31:57;5.40;99.90
37646;DHT22;23489;49.600;6.138;2023-02-01T08:34:22;5.40;99.90
37646;DHT22;23489;49.600;6.138;2023-02-01T08:36:48;5.60;99.90
37646;DHT22;23489;49.600;6.138;2023-02-01T08:39:14;5.70;99.90
37646;DHT22;23489;49.600;6.138;2023-02-01T08:41:40;5.80;99.90
37646;DHT22;23489;49.600;6.138;2023-02-01T08:44:07;5.90;99.90
37646;DHT22;23489;49.600;6.138;2023-02-01T08:46:33;5.80;99.90
37646;DHT22;23489;49.600;6.138;2023-02-01T08:48:59;5.90;99.90
37646;DHT22;23489;49.600;6.138;2023-02-01T08:51:25;6.20;99.90
37646;DHT22;23489;49.600;6.138;2023-02-01T08:53:51;6.20;99.90
37646;DHT22;23489;49.600;6.138;2023-02-01T08:56:18;6.00;99.90
37646;DHT22;23489;49.600;6.138;2023-02-01T08:58:44;5.80;99.90
37646;DHT22;23489;49.600;6.138;2023-02-01T09:01:14;5.60;99.90
37646;DHT22;23489;49.600;6.138;2023-02-01T09:03:40;5.80;99.90
37646;DHT22;23489;49.600;6.138;2023-02-01T09:06:08;6.30;99.90
37646;DHT22;23489;49.600;6.138;2023-02-01T09:08:34;6.60;99.90
37646;DHT22;23489;49.600;6.138;2023-02-01T09:11:02;6.60;99.90
37646;DHT22;23489;49.600;6.138;2023-02-01T09:13:31;6.70;99.90
37646;DHT22;23489;49.600;6.138;2023-02-01T09:15:57;6.70;99.90
37646;DHT22;23489;49.600;6.138;2023-02-01T09:18:25;6.50;99.90
37646;DHT22;23489;49.600;6.138;2023-02-01T09:20:51;6.60;99.90
37646;DHT22;23489;49.600;6.138;2023-02-01T09:23:17;7.40;99.90
37646;DHT22;23489;49.600;6.138;2023-02-01T09:25:43;7.70;99.90
37646;DHT22;23489;49.600;6.138;2023-02-01T09:28:08;7.80;99.90
37646;DHT22;23489;49.600;6.138;2023-02-01T09:30:35;7.70;99.90
37646;DHT22;23489;49.600;6.138;2023-02-01T09:33:01;7.40;99.90
37646;DHT22;23489;49.600;6.138;2023-02-01T09:35:27;7.30;99.90
37646;DHT22;23489;49.600;6.138;2023-02-01T09:37:53;7.40;99.90
37646;DHT22;23489;49.600;6.138;2023-02-01T09:40:20;7.30;99.90
37646;DHT22;23489;49.600;6.138;2023-02-01T09:42:49;7.00;99.90
37646;DHT22;23489;49.600;6.138;2023-02-01T09:48:13;6.50;99.90
37646;DHT22;23489;49.600;6.138;2023-02-01T09:50:43;6.30;99.90
37646;DHT22;23489;49.600;6.138;2023-02-01T09:53:29;5.90;99.90
37646;DHT22;23489;49.600;6.138;2023-02-01T09:56:21;5.80;99.90
37646;DHT22;23489;49.600;6.138;2023-02-01T09:59:09;5.70;99.90
37646;DHT22;23489;49.600;6.138;2023-02-01T10:01:36;5.80;99.90
37646;DHT22;23489;49.600;6.138;2023-02-01T10:04:08;5.90;99.90
37646;DHT22;23489;49.600;6.138;2023-02-01T10:09:58;5.90;99.90
37646;DHT22;23489;49.600;6.138;2023-02-01T10:12:43;5.70;99.90
37646;DHT22;23489;49.600;6.138;2023-02-01T10:15:52;6.00;99.90
37646;DHT22;23489;49.600;6.138;2023-02-01T10:18:42;6.10;99.90
37646;DHT22;23489;49.600;6.138;2023-02-01T10:24:22;6.20;99.90
37646;DHT22;23489;49.600;6.138;2023-02-01T10:26:57;6.10;99.90
37646;DHT22;23489;49.600;6.138;2023-02-01T10:29:31;6.30;99.90
37646;DHT22;23489;49.600;6.138;2023-02-01T10:31:59;6.60;99.90
37646;DHT22;23489;49.600;6.138;2023-02-01T10:34:31;6.60;99.90
37646;DHT22;23489;49.600;6.138;2023-02-01T10:37:08;6.50;99.90
37646;DHT22;23489;49.600;6.138;2023-02-01T10:39:35;6.60;99.90
37646;DHT22;23489;49.600;6.138;2023-02-01T10:42:02;6.40;99.90
37646;DHT22;23489;49.600;6.138;2023-02-01T10:44:30;6.50;99.90
37646;DHT22;23489;49.600;6.138;2023-02-01T10:46:56;6.90;99.90
37646;DHT22;23489;49.600;6.138;2023-02-01T10:49:49;6.80;99.90
37646;DHT22;23489;49.600;6.138;2023-02-01T10:52:36;7.00;99.90
37646;DHT22;23489;49.600;6.138;2023-02-01T10:55:43;7.00;99.90
37646;DHT22;23489;49.600;6.138;2023-02-01T10:58:17;7.60;99.90
37646;DHT22;23489;49.600;6.138;2023-02-01T11:00:55;8.10;99.90
37646;DHT22;23489;49.600;6.138;2023-02-01T11:03:41;7.80;99.90
37646;DHT22;23489;49.600;6.138;2023-02-01T11:08:55;7.30;99.90
37646;DHT22;23489;49.600;6.138;2023-02-01T11:11:21;7.40;99.90
37646;DHT22;23489;49.600;6.138;2023-02-01T11:13:55;7.30;99.90
37646;DHT22;23489;49.600;6.138;2023-02-01T11:16:21;7.00;99.90
37646;DHT22;23489;49.600;6.138;2023-02-01T11:18:53;6.70;99.90
37646;DHT22;23489;49.600;6.138;2023-02-01T11:21:20;6.60;99.90
37646;DHT22;23489;49.600;6.138;2023-02-01T11:23:46;6.30;99.90
37646;DHT22;23489;49.600;6.138;2023-02-01T11:26:14;6.40;99.90
37646;DHT22;23489;49.600;6.138;2023-02-01T11:28:52;6.40;99.90
37646;DHT22;23489;49.600;6.138;2023-02-01T11:31:18;6.40;99.90
37646;DHT22;23489;49.600;6.138;2023-02-01T11:33:51;6.40;99.90
37646;DHT22;23489;49.600;6.138;2023-02-01T11:36:22;6.40;99.90
37646;DHT22;23489;49.600;6.138;2023-02-01T11:39:08;6.40;99.90
37646;DHT22;23489;49.600;6.138;2023-02-01T11:44:44;6.40;99.90
37646;DHT22;23489;49.600;6.138;2023-02-01T11:47:27;6.70;99.90
37646;DHT22;23489;49.600;6.138;2023-02-01T11:49:55;6.90;99.90
37646;DHT22;23489;49.600;6.138;2023-02-01T11:58:34;6.80;99.90
37646;DHT22;23489;49.600;6.138;2023-02-01T12:04:25;6.80;99.90
37646;DHT22;23489;49.600;6.138;2023-02-01T12:07:20;6.90;99.90
37646;DHT22;23489;49.600;6.138;2023-02-01T12:15:37;7.20;99.90
37646;DHT22;23489;49.600;6.138;2023-02-01T12:21:21;7.00;99.90
37646;DHT22;23489;49.600;6.138;2023-02-01T12:23:59;7.20;99.90
37646;DHT22;23489;49.600;6.138;2023-02-01T12:26:53;7.20;99.90
37646;DHT22;23489;49.600;6.138;2023-02-01T12:29:44;7.10;99.90
37646;DHT22;23489;49.600;6.138;2023-02-01T12:40:07;7.20;99.90
37646;DHT22;23489;49.600;6.138;2023-02-01T12:42:41;7.10;99.90
37646;DHT22;23489;49.600;6.138;2023-02-01T12:45:30;7.10;99.90
37646;DHT22;23489;49.600;6.138;2023-02-01T12:48:13;7.10;99.90
37646;DHT22;23489;49.600;6.138;2023-02-01T12:50:53;7.20;99.90
37646;DHT22;23489;49.600;6.138;2023-02-01T12:53:25;7.20;99.90
37646;DHT22;23489;49.600;6.138;2023-02-01T12:55:58;7.20;99.90
37646;DHT22;23489;49.600;6.138;2023-02-01T12:58:33;7.10;99.90
37646;DHT22;23489;49.600;6.138;2023-02-01T13:01:07;7.10;99.90
37646;DHT22;23489;49.600;6.138;2023-02-01T13:06:43;7.00;99.90
37646;DHT22;23489;49.600;6.138;2023-02-01T13:11:45;7.00;99.90
37646;DHT22;23489;49.600;6.138;2023-02-01T13:14:29;6.90;99.90
37646;DHT22;23489;49.600;6.138;2023-02-01T13:17:22;6.90;99.90
37646;DHT22;23489;49.600;6.138;2023-02-01T13:19:57;6.90;99.90
37646;DHT22;23489;49.600;6.138;2023-02-01T13:23:03;7.00;99.90
37646;DHT22;23489;49.600;6.138;2023-02-01T13:25:40;7.20;99.90
37646;DHT22;23489;49.600;6.138;2023-02-01T13:28:29;7.40;99.90
37646;DHT22;23489;49.600;6.138;2023-02-01T13:33:55;7.50;99.90
37646;DHT22;23489;49.600;6.138;2023-02-01T13:36:36;7.60;99.90
37646;DHT22;23489;49.600;6.138;2023-02-01T13:41:57;7.50;99.90
37646;DHT22;23489;49.600;6.138;2023-02-01T13:44:34;7.60;99.90
37646;DHT22;23489;49.600;6.138;2023-02-01T13:47:09;7.60;99.90
37646;DHT22;23489;49.600;6.138;2023-02-01T13:49:39;7.60;99.90
37646;DHT22;23489;49.600;6.138;2023-02-01T13:52:16;7.70;99.90
37646;DHT22;23489;49.600;6.138;2023-02-01T13:54:45;7.60;99.90
37646;DHT22;23489;49.600;6.138;2023-02-01T14:00:22;7.60;99.90
37646;DHT22;23489;49.600;6.138;2023-02-01T14:02:50;7.60;99.90
37646;DHT22;23489;49.600;6.138;2023-02-01T14:23:58;7.30;99.90
37646;DHT22;23489;49.600;6.138;2023-02-01T14:32:01;6.90;99.90
37646;DHT22;23489;49.600;6.138;2023-02-01T14:37:06;6.90;99.90
37646;DHT22;23489;49.600;6.138;2023-02-01T14:39:52;6.90;99.90
37646;DHT22;23489;49.600;6.138;2023-02-01T14:44:48;6.80;99.90
37646;DHT22;23489;49.600;6.138;2023-02-01T14:52:23;6.90;99.90
37646;DHT22;23489;49.600;6.138;2023-02-01T14:54:55;6.80;99.90
37646;DHT22;23489;49.600;6.138;2023-02-01T14:57:25;6.70;99.90
37646;DHT22;23489;49.600;6.138;2023-02-01T15:00:05;6.70;99.90
37646;DHT22;23489;49.600;6.138;2023-02-01T15:02:34;6.70;99.90
37646;DHT22;23489;49.600;6.138;2023-02-01T15:05:01;6.70;99.90
37646;DHT22;23489;49.600;6.138;2023-02-01T15:07:28;6.60;99.90
37646;DHT22;23489;49.600;6.138;2023-02-01T15:09:57;6.60;99.90
37646;DHT22;23489;49.600;6.138;2023-02-01T15:12:27;6.60;99.90
37646;DHT22;23489;49.600;6.138;2023-02-01T15:15:20;6.60;99.90
37646;DHT22;23489;49.600;6.138;2023-02-01T15:17:59;6.60;99.90
37646;DHT22;23489;49.600;6.138;2023-02-01T15:20:32;6.60;99.90
37646;DHT22;23489;49.600;6.138;2023-02-01T15:23:01;6.60;99.90
37646;DHT22;23489;49.600;6.138;2023-02-01T15:25:29;6.50;99.90
37646;DHT22;23489;49.600;6.138;2023-02-01T15:27:56;6.40;99.90
37646;DHT22;23489;49.600;6.138;2023-02-01T15:30:28;6.40;99.90
37646;DHT22;23489;49.600;6.138;2023-02-01T15:35:48;6.30;99.90
37646;DHT22;23489;49.600;6.138;2023-02-01T15:46:10;6.30;99.90
37646;DHT22;23489;49.600;6.138;2023-02-01T15:48:55;6.30;99.90
37646;DHT22;23489;49.600;6.138;2023-02-01T15:51:23;6.30;99.90
37646;DHT22;23489;49.600;6.138;2023-02-01T15:54:07;6.20;99.90
37646;DHT22;23489;49.600;6.138;2023-02-01T15:56:39;6.20;99.90
37646;DHT22;23489;49.600;6.138;2023-02-01T15:59:16;6.10;99.90
37646;DHT22;23489;49.600;6.138;2023-02-01T16:01:43;6.10;99.90
37646;DHT22;23489;49.600;6.138;2023-02-01T16:04:29;6.10;99.90
37646;DHT22;23489;49.600;6.138;2023-02-01T16:07:03;6.00;99.90
37646;DHT22;23489;49.600;6.138;2023-02-01T16:09:53;6.10;99.90
37646;DHT22;23489;49.600;6.138;2023-02-01T16:12:44;6.00;99.90
37646;DHT22;23489;49.600;6.138;2023-02-01T16:15:10;6.00;99.90
37646;DHT22;23489;49.600;6.138;2023-02-01T16:17:36;6.00;99.90
37646;DHT22;23489;49.600;6.138;2023-02-01T16:20:01;6.00;99.90
37646;DHT22;23489;49.600;6.138;2023-02-01T16:22:27;6.00;99.90
37646;DHT22;23489;49.600;6.138;2023-02-01T16:24:52;6.00;99.90
37646;DHT22;23489;49.600;6.138;2023-02-01T16:27:18;6.00;99.90
37646;DHT22;23489;49.600;6.138;2023-02-01T16:29:44;6.00;99.90
37646;DHT22;23489;49.600;6.138;2023-02-01T16:32:18;6.00;99.90
37646;DHT22;23489;49.600;6.138;2023-02-01T16:34:46;6.10;99.90
37646;DHT22;23489;49.600;6.138;2023-02-01T16:37:22;6.10;99.90
37646;DHT22;23489;49.600;6.138;2023-02-01T16:39:48;6.10;99.90
37646;DHT22;23489;49.600;6.138;2023-02-01T16:42:14;6.10;99.90
37646;DHT22;23489;49.600;6.138;2023-02-01T16:44:41;6.10;99.90
37646;DHT22;23489;49.600;6.138;2023-02-01T16:47:18;6.00;99.90
37646;DHT22;23489;49.600;6.138;2023-02-01T16:49:44;5.90;99.90
37646;DHT22;23489;49.600;6.138;2023-02-01T16:52:15;5.90;99.90
37646;DHT22;23489;49.600;6.138;2023-02-01T16:54:41;5.90;99.90
37646;DHT22;23489;49.600;6.138;2023-02-01T16:57:15;5.90;99.90
37646;DHT22;23489;49.600;6.138;2023-02-01T16:59:41;5.90;99.90
37646;DHT22;23489;49.600;6.138;2023-02-01T17:02:17;5.80;99.90
37646;DHT22;23489;49.600;6.138;2023-02-01T17:04:45;5.80;99.90
37646;DHT22;23489;49.600;6.138;2023-02-01T17:07:15;5.70;99.90
37646;DHT22;23489;49.600;6.138;2023-02-01T17:09:41;5.70;99.90
37646;DHT22;23489;49.600;6.138;2023-02-01T17:12:25;5.70;99.90
37646;DHT22;23489;49.600;6.138;2023-02-01T17:14:51;5.60;99.90
37646;DHT22;23489;49.600;6.138;2023-02-01T17:17:19;5.50;99.90
37646;DHT22;23489;49.600;6.138;2023-02-01T17:19:47;5.50;99.90
37646;DHT22;23489;49.600;6.138;2023-02-01T17:22:15;5.50;99.90
37646;DHT22;23489;49.600;6.138;2023-02-01T17:24:41;5.40;99.90
37646;DHT22;23489;49.600;6.138;2023-02-01T17:27:07;5.30;99.90
37646;DHT22;23489;49.600;6.138;2023-02-01T17:29:33;5.40;99.90
37646;DHT22;23489;49.600;6.138;2023-02-01T17:31:58;5.30;99.90
37646;DHT22;23489;49.600;6.138;2023-02-01T17:34:25;5.30;99.90
37646;DHT22;23489;49.600;6.138;2023-02-01T17:36:51;5.30;99.90
37646;DHT22;23489;49.600;6.138;2023-02-01T17:39:17;5.30;99.90
37646;DHT22;23489;49.600;6.138;2023-02-01T17:42:03;5.20;99.90
37646;DHT22;23489;49.600;6.138;2023-02-01T17:44:29;5.20;99.90
37646;DHT22;23489;49.600;6.138;2023-02-01T17:46:55;5.20;99.90
37646;DHT22;23489;49.600;6.138;2023-02-01T17:49:22;5.20;99.90
37646;DHT22;23489;49.600;6.138;2023-02-01T17:51:48;5.20;99.90
37646;DHT22;23489;49.600;6.138;2023-02-01T17:54:15;5.20;99.90
37646;DHT22;23489;49.600;6.138;2023-02-01T17:56:42;5.30;99.90
37646;DHT22;23489;49.600;6.138;2023-02-01T17:59:08;5.30;99.90
37646;DHT22;23489;49.600;6.138;2023-02-01T18:01:34;5.30;99.90
37646;DHT22;23489;49.600;6.138;2023-02-01T18:03:59;5.40;99.90
37646;DHT22;23489;49.600;6.138;2023-02-01T18:06:25;5.40;99.90
37646;DHT22;23489;49.600;6.138;2023-02-01T18:08:52;5.40;99.90
37646;DHT22;23489;49.600;6.138;2023-02-01T18:11:20;5.50;99.90
37646;DHT22;23489;49.600;6.138;2023-02-01T18:13:47;5.50;99.90
37646;DHT22;23489;49.600;6.138;2023-02-01T18:16:27;5.50;99.90
37646;DHT22;23489;49.600;6.138;2023-02-01T18:18:53;5.60;99.90
37646;DHT22;23489;49.600;6.138;2023-02-01T18:21:21;5.60;99.90
37646;DHT22;23489;49.600;6.138;2023-02-01T18:23:47;5.60;99.90
37646;DHT22;23489;49.600;6.138;2023-02-01T18:26:15;5.70;99.90